Irene, Illinois
Current Conditions -  °F | °C
As of 7:54 AM on Wednesday 28 Jan 2015 (Local Time) from KRFD Reporting Station
Broken Clouds Broken Clouds  
Wind Chill: 10°   Ceiling: 25000
Heat Index: 22°   Visibility: 10mi
Dew Point: 16°   Wind: 12mph
Humidity: 78%   Direction: 150°SSE
Pressure: 30.25"   Gusts: NA
Location:  42.1893°N, 88.9437°W
Report Text: KRFD 281354Z 15010KT 10SM FEW022 BKN250 M06/M09 A3025 RMK AO2 SLP256 T10561089
Loading
Personal Weather Stations






























Interactive Weather Map New forecast layout! Learn more

10-Day Weather Forecast

Advertisements
Track Severe Weather on mobile